Terminal Aerodrome Forecast
Issued by NWS Pocatello, ID

Home | Current Version | Previous Version | Text Only | Print | Product List | Glossary On
Versions: 1 2 3 4 5 6 7 8 9 10 11 12 13 14 15 16
000
FTUS45 KPIH 021700
TAFIDA
TAF
KIDA 021720Z 0218/0318 20010KT P6SM SKC
     FM021900 21011G19KT P6SM SKC
     FM030200 20008KT P6SM SKC
     FM031500 21022G32KT P6SM FEW070 FEW200=

USA.gov is the U.S. government's official web portal to all federal, state and local government web resources and services.